Banning, CA

7:03 AM PDT on August 03, 2015 (GMT -0700)
Aspen Ln | | Change Station
CLOSE
Current Station
Personal Weather Station
Location: Banning, CA
Elevation: 2648 ft
Nearby Weather Stations
Active Advisory: Heat Advisory

Elev 2648 ft 33.94 °N, 116.92 °W | Updated 10 minutes ago

Clear
Clear
65.3 °F
Feels Like 65.3 °F
N
2.2
Wind Variable Wind from NW

Today
High -- | Low -- °F
--% Chance of Precip.
Yesterday
High -- | Low -- °F
Precip. -- in
6:00 AM 7:46 PM
Waning Gibbous, 86% visible
Pressure 29.89 in
Visibility 10.0 miles
Clouds Clear
Dew Point 58 °F
Humidity 78%
Rainfall 0.00 in
Snow Depth Not available.
UV 1 out of 12
Pollen 4.60 out of 12
Air Quality Not available.
Flu Activity Not available.
METAR KRIV 031358Z AUTO 30004KT 10SM CLR 19/19 A2993 RMK AO2 SLP122 T01910187

More Conditions Fewer Conditions

Pressure 29.89 in
Visibility 10.0 miles
Clouds Clear
Dew Point 58 °F
Humidity 78%
Rainfall 0.00 in
Snow Depth Not available.
UV 1 out of 12
Pollen 4.60 out of 12
Air Quality Not available.
Flu Activity Not available.
METAR KRIV 031358Z AUTO 30004KT 10SM CLR 19/19 A2993 RMK AO2 SLP122 T01910187

More Conditions Fewer Conditions

10-Day Weather Forecast

×

Almanac

Astronomy

Aug. 03, 2015 Rise Set
Actual Time
Civil Twilight
Nautical Twilight
Astronomical Twilight
Moon
Length of Visible Light
Length of Day
Tomorrow will be .
, % of the Moon is Illuminated

Today's Extremes

State Highs State Lows

Community

WunderPhotos

Upload Photos

1,843,636 photos uploaded!

WunderBlogs® & News

Nearby

Air Quality

  Air Quality AQ Index Pollutant
Not available.

Snow Depth

Station Depth Elevation

Earthquake Activity

City Distance Mag. Time & Date
Minimum magnitude displayed is 2.5.

Coastal Water Temperatures

Place Temperature

Stations

Nearby Weather Stations

Station Location Temp. Windchill Dew Point Humidity Wind Precip. Elev Updated Type
                   
Heat Advisory
Statement as of 2:01 AM PDT on August 03, 2015

... Heat advisory now in effect from noon Tuesday to 6 PM PDT
Wednesday...

* location... near the Palm Springs area for Tuesday... expanding
southward through the thermal area on Wednesday.

* High temperatures... 112 to 115 on Tuesday... 112 to 116 on
Wednesday.

* Impacts... risk of heat related illness.

* Outlook... cooling for Thursday through Saturday.

Precautionary/preparedness actions...

Take extra precautions if you work or spend time outside. When
possible... reschedule strenuous activities to early morning or
evening. Know the signs and symptoms of heat exhaustion and heat
stroke. Wear light weight and loose fitting clothing when
possible and drink plenty of water.

To reduce risk during outdoor work the occupational safety and
health administration recommends scheduling frequent rest breaks
in shaded or air conditioned environments. Anyone overcome by
heat should be moved to a cool and shaded location. Heat stroke
is an emergency - call 911.



For a detailed map of the hazard: